createdAt,value
2022-12-31T00:02:22.967Z,97.40
2022-12-31T00:04:50.814Z,97.56
2022-12-31T00:07:18.519Z,97.48
2022-12-31T00:09:46.203Z,97.63
2022-12-31T00:12:13.980Z,97.60
2022-12-31T00:14:41.688Z,97.61
2022-12-31T00:17:09.478Z,97.75
2022-12-31T00:19:37.282Z,97.60
2022-12-31T00:22:04.997Z,97.66
2022-12-31T00:24:35.800Z,97.62
2022-12-31T00:27:03.629Z,97.95
2022-12-31T00:29:31.329Z,98.06
2022-12-31T00:31:59.061Z,97.97
2022-12-31T00:34:26.777Z,98.05
2022-12-31T00:36:54.474Z,98.04
2022-12-31T00:39:22.169Z,98.00
2022-12-31T00:41:49.943Z,98.04
2022-12-31T00:44:17.720Z,98.08
2022-12-31T00:49:12.277Z,98.10
2022-12-31T00:51:40.416Z,98.16
2022-12-31T00:54:09.239Z,98.25
2022-12-31T00:56:36.942Z,98.26
2022-12-31T00:59:04.811Z,98.08
2022-12-31T01:01:37.999Z,97.99
2022-12-31T01:04:17.777Z,97.90
2022-12-31T01:06:46.412Z,97.86
2022-12-31T01:09:15.557Z,98.01
2022-12-31T01:11:43.984Z,97.97
2022-12-31T01:14:15.256Z,98.04
2022-12-31T01:16:45.975Z,97.91
2022-12-31T01:19:17.649Z,97.93
2022-12-31T01:21:46.658Z,97.96
2022-12-31T01:24:14.896Z,97.94
2022-12-31T01:26:43.494Z,98.05
2022-12-31T01:29:13.629Z,97.97
2022-12-31T01:31:41.483Z,98.11
2022-12-31T01:34:10.047Z,98.15
2022-12-31T01:36:38.549Z,98.04
2022-12-31T01:39:08.326Z,98.20
2022-12-31T01:41:39.408Z,98.14
2022-12-31T01:44:13.202Z,98.19
2022-12-31T01:46:45.712Z,98.15
2022-12-31T01:49:20.621Z,98.20
2022-12-31T01:51:58.404Z,98.26
2022-12-31T01:54:30.664Z,98.35
2022-12-31T01:56:59.285Z,98.41
2022-12-31T01:59:29.680Z,98.30
2022-12-31T02:01:59.412Z,98.25
2022-12-31T02:04:29.033Z,98.45
2022-12-31T02:07:01.186Z,98.52
2022-12-31T02:09:30.272Z,98.62
2022-12-31T02:11:58.711Z,98.67
2022-12-31T02:14:30.641Z,98.50
2022-12-31T02:17:28.191Z,98.28
2022-12-31T02:20:14.694Z,98.20
2022-12-31T02:22:45.184Z,98.04
2022-12-31T02:25:35.242Z,98.00
2022-12-31T02:28:20.368Z,97.99
2022-12-31T02:30:51.613Z,98.06
2022-12-31T02:33:38.867Z,98.06
2022-12-31T02:36:13.140Z,98.07
2022-12-31T02:38:44.676Z,97.98
2022-12-31T02:41:33.380Z,97.99
2022-12-31T02:44:01.489Z,97.94
2022-12-31T02:46:46.861Z,98.01
2022-12-31T02:49:24.049Z,97.98
2022-12-31T02:52:06.836Z,97.95
2022-12-31T02:55:13.688Z,98.07
2022-12-31T02:57:46.065Z,98.08
2022-12-31T03:00:32.496Z,98.04
2022-12-31T03:03:01.934Z,97.91
2022-12-31T03:05:34.333Z,97.77
2022-12-31T03:08:02.276Z,97.67
2022-12-31T03:10:29.990Z,97.63
2022-12-31T03:12:58.902Z,97.59
2022-12-31T03:15:30.055Z,97.52
2022-12-31T03:18:11.748Z,97.62
2022-12-31T03:20:55.369Z,97.45
2022-12-31T03:23:30.979Z,97.39
2022-12-31T03:25:59.992Z,97.43
2022-12-31T03:28:30.307Z,97.33
2022-12-31T03:31:01.604Z,97.29
2022-12-31T03:33:35.407Z,97.44
2022-12-31T03:36:04.197Z,97.48
2022-12-31T03:38:31.943Z,97.41
2022-12-31T03:40:59.678Z,97.59
2022-12-31T03:43:27.592Z,97.51
2022-12-31T03:45:58.532Z,97.61
2022-12-31T03:48:27.640Z,97.68
2022-12-31T03:50:55.481Z,97.63
2022-12-31T03:53:23.401Z,97.70
2022-12-31T03:55:52.589Z,97.73
2022-12-31T03:58:21.138Z,97.73
2022-12-31T04:00:49.430Z,97.74
2022-12-31T04:03:17.417Z,97.74
2022-12-31T04:05:45.260Z,97.69
2022-12-31T04:08:12.944Z,97.68
2022-12-31T04:10:40.640Z,97.72
2022-12-31T04:13:08.355Z,97.84
2022-12-31T04:15:36.048Z,98.04
2022-12-31T04:18:03.817Z,98.28
2022-12-31T04:20:31.519Z,98.41
2022-12-31T04:22:59.228Z,98.67
2022-12-31T04:25:26.945Z,98.96
2022-12-31T04:27:54.692Z,99.27
2022-12-31T04:30:22.407Z,99.36
2022-12-31T04:32:50.121Z,99.43
2022-12-31T04:35:17.963Z,99.72
2022-12-31T04:37:45.794Z,99.95
2022-12-31T04:40:13.728Z,100.00
2022-12-31T04:42:41.415Z,100.00
2022-12-31T04:45:10.528Z,100.00
2022-12-31T04:47:38.353Z,100.00
2022-12-31T04:50:06.714Z,100.00
2022-12-31T04:52:40.524Z,100.00
2022-12-31T04:55:11.623Z,100.00
2022-12-31T04:57:41.218Z,100.00
2022-12-31T05:00:09.716Z,100.00
2022-12-31T05:02:37.718Z,100.00
2022-12-31T05:05:06.160Z,100.00
2022-12-31T05:07:33.863Z,100.00
2022-12-31T05:10:01.747Z,100.00
2022-12-31T05:12:29.508Z,100.00
2022-12-31T05:14:57.242Z,100.00
2022-12-31T05:17:24.911Z,100.00
2022-12-31T05:19:52.576Z,100.00
2022-12-31T05:22:36.184Z,100.00
2022-12-31T05:25:04.481Z,100.00
2022-12-31T05:27:32.411Z,100.00
2022-12-31T05:30:00.334Z,100.00
2022-12-31T05:32:28.448Z,100.00
2022-12-31T05:34:57.763Z,100.00
2022-12-31T05:37:27.523Z,100.00
2022-12-31T05:39:55.631Z,100.00
2022-12-31T05:42:24.350Z,100.00
2022-12-31T05:44:52.445Z,100.00
2022-12-31T05:47:20.510Z,100.00
2022-12-31T05:49:48.488Z,100.00
2022-12-31T05:52:16.957Z,100.00
2022-12-31T05:54:44.871Z,100.00
2022-12-31T05:57:13.061Z,100.00
2022-12-31T05:59:43.864Z,100.00
2022-12-31T06:02:11.559Z,100.00
2022-12-31T06:04:39.217Z,100.00
2022-12-31T06:07:06.912Z,100.00
2022-12-31T06:09:34.614Z,100.00
2022-12-31T06:12:02.503Z,100.00
2022-12-31T06:14:30.189Z,100.00
2022-12-31T06:16:58.152Z,100.00
2022-12-31T06:19:26.158Z,100.00
2022-12-31T06:21:53.885Z,100.00
2022-12-31T06:24:21.942Z,100.00
2022-12-31T06:26:49.696Z,100.00
2022-12-31T06:29:17.530Z,100.00
2022-12-31T06:31:45.431Z,100.00
2022-12-31T06:34:13.147Z,100.00
2022-12-31T06:36:40.885Z,100.00
2022-12-31T06:39:08.604Z,100.00
2022-12-31T06:41:36.539Z,100.00
2022-12-31T06:44:04.530Z,100.00
2022-12-31T06:46:32.299Z,100.00
2022-12-31T06:49:00.131Z,100.00
2022-12-31T06:51:27.974Z,100.00
2022-12-31T06:53:55.721Z,100.00
2022-12-31T06:56:33.997Z,100.00
2022-12-31T06:59:03.649Z,100.00
2022-12-31T07:01:47.461Z,100.00
2022-12-31T07:04:31.208Z,100.00
2022-12-31T07:07:33.807Z,100.00
2022-12-31T07:10:17.534Z,100.00
2022-12-31T07:12:57.411Z,100.00
2022-12-31T07:15:52.537Z,100.00
2022-12-31T07:18:36.248Z,100.00
2022-12-31T07:21:09.633Z,100.00
2022-12-31T07:23:37.691Z,100.00
2022-12-31T07:26:34.371Z,100.00
2022-12-31T07:29:21.258Z,100.00
2022-12-31T07:32:11.362Z,100.00
2022-12-31T07:35:11.015Z,100.00
2022-12-31T07:38:10.560Z,100.00
2022-12-31T07:41:05.541Z,100.00
2022-12-31T07:43:47.892Z,100.00
2022-12-31T07:46:46.289Z,100.00
2022-12-31T07:49:15.147Z,100.00
2022-12-31T07:51:43.745Z,100.00
2022-12-31T07:54:14.257Z,100.00
2022-12-31T07:56:43.940Z,100.00
2022-12-31T07:59:24.648Z,100.00
2022-12-31T08:02:03.048Z,100.00
2022-12-31T08:04:40.043Z,100.00
2022-12-31T08:07:33.871Z,100.00
2022-12-31T08:10:23.467Z,100.00
2022-12-31T08:13:00.270Z,100.00
2022-12-31T08:15:30.756Z,100.00
2022-12-31T08:17:59.250Z,100.00
2022-12-31T08:20:29.202Z,100.00
2022-12-31T08:23:28.905Z,100.00
2022-12-31T08:26:19.676Z,100.00
2022-12-31T08:29:06.011Z,100.00
2022-12-31T08:31:52.500Z,100.00
2022-12-31T08:34:34.206Z,100.00
2022-12-31T08:37:11.639Z,100.00
2022-12-31T08:40:03.644Z,100.00
2022-12-31T08:42:36.310Z,100.00
2022-12-31T08:45:10.342Z,100.00
2022-12-31T08:48:09.962Z,100.00
2022-12-31T08:50:38.035Z,100.00
2022-12-31T08:53:06.457Z,100.00
2022-12-31T08:55:34.839Z,100.00
2022-12-31T08:58:21.088Z,100.00
2022-12-31T09:00:53.186Z,100.00
2022-12-31T09:03:39.751Z,100.00
2022-12-31T09:06:10.406Z,100.00
2022-12-31T09:09:01.404Z,100.00
2022-12-31T09:11:51.845Z,100.00
2022-12-31T09:14:25.307Z,100.00
2022-12-31T09:16:58.929Z,99.98
2022-12-31T09:19:27.294Z,99.90
2022-12-31T09:21:55.571Z,99.96
2022-12-31T09:24:23.793Z,99.93
2022-12-31T09:27:03.011Z,99.85
2022-12-31T09:30:03.944Z,99.94
2022-12-31T09:33:03.723Z,99.95
2022-12-31T09:35:40.701Z,99.99
2022-12-31T09:38:40.337Z,99.97
2022-12-31T09:41:16.810Z,99.92
2022-12-31T09:44:06.680Z,99.94
2022-12-31T09:47:10.587Z,99.91
2022-12-31T09:50:12.553Z,99.96
2022-12-31T09:52:50.153Z,100.00
2022-12-31T09:55:57.694Z,100.00
2022-12-31T09:58:31.082Z,99.96
2022-12-31T10:01:31.442Z,99.93
2022-12-31T10:04:23.222Z,100.00
2022-12-31T10:07:23.017Z,99.98
2022-12-31T10:10:12.577Z,99.91
2022-12-31T10:12:59.128Z,99.83
2022-12-31T10:15:47.162Z,99.84
2022-12-31T10:18:46.768Z,99.88
2022-12-31T10:21:24.509Z,99.83
2022-12-31T10:24:08.080Z,99.74
2022-12-31T10:26:53.591Z,99.87
2022-12-31T10:29:32.915Z,99.65
2022-12-31T10:32:16.882Z,99.67
2022-12-31T10:34:53.531Z,99.59
2022-12-31T10:37:28.774Z,99.40
2022-12-31T10:40:06.578Z,99.46
2022-12-31T10:43:03.688Z,99.52
2022-12-31T10:45:50.859Z,99.44
2022-12-31T10:48:37.653Z,99.45
2022-12-31T10:51:24.677Z,99.40
2022-12-31T10:53:55.125Z,99.51
2022-12-31T10:56:41.821Z,99.54
2022-12-31T10:59:28.193Z,99.60
2022-12-31T11:02:18.754Z,99.74
2022-12-31T11:05:02.557Z,99.95
2022-12-31T11:07:46.725Z,100.00
2022-12-31T11:10:30.269Z,100.00
2022-12-31T11:13:14.182Z,100.00
2022-12-31T11:15:49.954Z,100.00
2022-12-31T11:18:33.581Z,100.00
2022-12-31T11:21:29.069Z,100.00
2022-12-31T11:24:28.747Z,100.00
2022-12-31T11:27:28.417Z,100.00
2022-12-31T11:30:19.077Z,100.00
2022-12-31T11:32:48.228Z,100.00
2022-12-31T11:35:23.254Z,100.00
2022-12-31T11:37:54.428Z,100.00
2022-12-31T11:40:36.815Z,100.00
2022-12-31T11:43:04.453Z,100.00
2022-12-31T11:46:03.326Z,100.00
2022-12-31T11:48:53.048Z,100.00
2022-12-31T11:51:26.862Z,100.00
2022-12-31T11:54:26.428Z,100.00
2022-12-31T11:57:01.023Z,100.00
2022-12-31T11:59:28.969Z,100.00
2022-12-31T12:02:15.573Z,100.00
2022-12-31T12:04:44.464Z,100.00
2022-12-31T12:07:16.231Z,100.00
2022-12-31T12:09:45.625Z,100.00
2022-12-31T12:12:13.565Z,100.00
2022-12-31T12:14:43.893Z,100.00
2022-12-31T12:17:32.353Z,100.00
2022-12-31T12:20:03.331Z,100.00
2022-12-31T12:22:31.666Z,100.00
2022-12-31T12:25:07.476Z,100.00
2022-12-31T12:27:36.464Z,100.00
2022-12-31T12:30:17.837Z,100.00
2022-12-31T12:32:57.278Z,100.00
2022-12-31T12:35:35.905Z,100.00
2022-12-31T12:38:13.605Z,100.00
2022-12-31T12:40:41.884Z,100.00
2022-12-31T12:43:28.043Z,100.00
2022-12-31T12:46:02.287Z,100.00
2022-12-31T12:48:37.014Z,100.00
2022-12-31T12:51:33.131Z,100.00
2022-12-31T12:54:03.611Z,100.00
2022-12-31T12:56:47.185Z,100.00
2022-12-31T12:59:31.882Z,100.00
2022-12-31T13:02:33.831Z,100.00
2022-12-31T13:05:33.767Z,100.00
2022-12-31T13:08:17.372Z,100.00
2022-12-31T13:11:21.701Z,100.00
2022-12-31T13:13:58.703Z,100.00
2022-12-31T13:16:45.498Z,100.00
2022-12-31T13:19:29.141Z,100.00
2022-12-31T13:22:15.977Z,100.00
2022-12-31T13:24:49.794Z,100.00
2022-12-31T13:27:34.159Z,100.00
2022-12-31T13:30:07.290Z,100.00
2022-12-31T13:32:42.251Z,100.00
2022-12-31T13:35:26.413Z,100.00
2022-12-31T13:38:05.546Z,100.00
2022-12-31T13:40:44.946Z,100.00
2022-12-31T13:43:22.244Z,100.00
2022-12-31T13:46:00.266Z,100.00
2022-12-31T13:48:37.098Z,100.00
2022-12-31T13:51:18.234Z,100.00
2022-12-31T13:53:56.821Z,100.00
2022-12-31T13:56:29.323Z,100.00
2022-12-31T13:59:40.354Z,100.00
2022-12-31T14:02:32.940Z,100.00
2022-12-31T14:05:17.021Z,100.00
2022-12-31T14:07:52.562Z,100.00
2022-12-31T14:10:56.212Z,100.00
2022-12-31T14:13:34.806Z,100.00
2022-12-31T14:16:15.544Z,100.00
2022-12-31T14:18:57.014Z,100.00
2022-12-31T14:21:49.637Z,100.00
2022-12-31T14:24:35.750Z,100.00
2022-12-31T14:27:09.025Z,100.00
2022-12-31T14:29:43.146Z,100.00
2022-12-31T14:32:43.000Z,100.00
2022-12-31T14:35:42.592Z,100.00
2022-12-31T14:38:26.184Z,100.00
2022-12-31T14:41:18.804Z,100.00
2022-12-31T14:44:05.716Z,100.00
2022-12-31T14:47:05.390Z,100.00
2022-12-31T14:49:56.943Z,100.00
2022-12-31T14:52:31.976Z,100.00
2022-12-31T14:55:27.597Z,100.00
2022-12-31T14:58:27.195Z,100.00
2022-12-31T15:00:58.596Z,100.00
2022-12-31T15:03:42.910Z,100.00
2022-12-31T15:06:19.515Z,100.00
2022-12-31T15:09:07.654Z,100.00
2022-12-31T15:12:09.072Z,100.00
2022-12-31T15:14:54.546Z,100.00
2022-12-31T15:17:38.198Z,100.00
2022-12-31T15:20:10.134Z,100.00
2022-12-31T15:22:49.895Z,100.00
2022-12-31T15:25:28.756Z,100.00
2022-12-31T15:27:59.460Z,99.93
2022-12-31T15:30:54.505Z,99.89
2022-12-31T15:33:25.375Z,99.99
2022-12-31T15:35:56.260Z,99.85
2022-12-31T15:38:31.736Z,99.89
2022-12-31T15:41:00.297Z,99.85
2022-12-31T15:43:32.229Z,99.77
2022-12-31T15:46:02.067Z,99.51
2022-12-31T15:48:41.317Z,99.63
2022-12-31T15:51:17.466Z,99.29
2022-12-31T15:53:52.886Z,99.52
2022-12-31T15:56:47.181Z,99.40
2022-12-31T15:59:17.128Z,99.38
2022-12-31T16:01:45.827Z,99.65
2022-12-31T16:04:23.815Z,99.60
2022-12-31T16:06:52.369Z,99.36
2022-12-31T16:09:37.286Z,99.29
2022-12-31T16:12:20.779Z,99.16
2022-12-31T16:15:04.850Z,98.97
2022-12-31T16:17:35.157Z,99.11
2022-12-31T16:20:30.079Z,99.32
2022-12-31T16:23:01.577Z,99.18
2022-12-31T16:25:32.873Z,98.96
2022-12-31T16:28:03.419Z,99.25
2022-12-31T16:30:35.763Z,99.14
2022-12-31T16:33:12.735Z,99.20
2022-12-31T16:35:40.791Z,99.25
2022-12-31T16:38:17.889Z,99.09
2022-12-31T16:41:01.626Z,98.82
2022-12-31T16:43:31.049Z,99.00
2022-12-31T16:46:15.070Z,99.07
2022-12-31T16:48:49.584Z,98.98
2022-12-31T16:51:21.290Z,99.06
2022-12-31T16:53:50.305Z,98.84
2022-12-31T16:56:36.392Z,98.68
2022-12-31T16:59:18.150Z,98.76
2022-12-31T17:01:46.853Z,98.48
2022-12-31T17:04:20.728Z,98.61
2022-12-31T17:06:48.479Z,98.66
2022-12-31T17:09:21.789Z,98.87
2022-12-31T17:11:50.517Z,98.83
2022-12-31T17:14:23.105Z,98.80
2022-12-31T17:17:03.519Z,98.72
2022-12-31T17:19:39.689Z,98.65
2022-12-31T17:22:13.519Z,98.36
2022-12-31T17:24:41.689Z,98.37
2022-12-31T17:27:10.313Z,98.34
2022-12-31T17:29:38.188Z,98.28
2022-12-31T17:32:31.081Z,98.14
2022-12-31T17:34:59.017Z,98.26
2022-12-31T17:37:29.855Z,98.22
2022-12-31T17:40:32.185Z,98.02
2022-12-31T17:42:50.948Z,98.20
2022-12-31T17:45:21.407Z,98.10
2022-12-31T17:47:55.481Z,98.20
2022-12-31T17:50:26.168Z,97.74
2022-12-31T17:53:08.932Z,97.58
2022-12-31T17:55:37.112Z,97.58
2022-12-31T17:58:06.522Z,97.71
2022-12-31T18:00:36.861Z,97.67
2022-12-31T18:03:04.664Z,97.51
2022-12-31T18:05:32.626Z,97.61
2022-12-31T18:08:00.312Z,97.39
2022-12-31T18:10:32.116Z,97.48
2022-12-31T18:13:01.610Z,97.17
2022-12-31T18:15:29.302Z,97.41
2022-12-31T18:17:57.383Z,97.58
2022-12-31T18:20:26.315Z,97.37
2022-12-31T18:22:55.648Z,97.34
2022-12-31T18:25:24.159Z,97.12
2022-12-31T18:27:52.379Z,97.27
2022-12-31T18:30:20.434Z,96.94
2022-12-31T18:32:48.556Z,97.00
2022-12-31T18:36:06.505Z,96.98
2022-12-31T18:38:13.060Z,96.61
2022-12-31T18:40:44.211Z,96.97
2022-12-31T18:43:17.372Z,96.84
2022-12-31T18:45:46.679Z,96.60
2022-12-31T18:48:15.400Z,96.77
2022-12-31T18:50:43.896Z,96.59
2022-12-31T18:53:17.532Z,96.64
2022-12-31T18:55:49.337Z,96.77
2022-12-31T18:58:17.380Z,96.66
2022-12-31T19:00:46.446Z,96.86
2022-12-31T19:03:21.024Z,96.87
2022-12-31T19:05:50.657Z,96.74
2022-12-31T19:08:19.941Z,96.94
2022-12-31T19:10:50.055Z,96.96
2022-12-31T19:13:19.656Z,96.87
2022-12-31T19:15:50.308Z,97.14
2022-12-31T19:18:18.684Z,96.79
2022-12-31T19:20:46.938Z,96.93
2022-12-31T19:23:17.805Z,97.06
2022-12-31T19:25:48.089Z,96.79
2022-12-31T19:28:22.224Z,97.00
2022-12-31T19:30:50.285Z,96.92
2022-12-31T19:33:19.492Z,96.76
2022-12-31T19:35:47.391Z,96.69
2022-12-31T19:38:23.963Z,96.75
2022-12-31T19:40:53.432Z,96.84
2022-12-31T19:43:22.744Z,96.81
2022-12-31T19:45:51.754Z,96.93
2022-12-31T19:48:25.811Z,96.92
2022-12-31T19:50:58.141Z,96.88
2022-12-31T19:53:27.364Z,96.95
2022-12-31T19:55:55.093Z,97.05
2022-12-31T19:58:25.926Z,96.99
2022-12-31T20:01:01.997Z,97.05
2022-12-31T20:03:32.906Z,97.14
2022-12-31T20:06:06.950Z,97.21
2022-12-31T20:08:36.882Z,97.25
2022-12-31T20:11:21.208Z,97.23
2022-12-31T20:13:50.563Z,97.29
2022-12-31T20:16:20.607Z,97.67
2022-12-31T20:18:50.328Z,97.58
2022-12-31T20:21:23.627Z,97.61
2022-12-31T20:23:53.544Z,97.63
2022-12-31T20:26:23.764Z,97.70
2022-12-31T20:28:52.834Z,97.71
2022-12-31T20:31:24.657Z,97.50
2022-12-31T20:33:54.288Z,97.49
2022-12-31T20:36:23.134Z,97.37
2022-12-31T20:38:50.979Z,97.35
2022-12-31T20:41:21.796Z,97.48
2022-12-31T20:43:49.901Z,97.21
2022-12-31T20:46:23.558Z,97.27
2022-12-31T20:48:52.502Z,97.01
2022-12-31T20:51:22.906Z,97.00
2022-12-31T20:53:55.158Z,96.95
2022-12-31T20:56:24.823Z,96.94
2022-12-31T20:58:52.631Z,96.74
2022-12-31T21:01:21.484Z,96.65
2022-12-31T21:04:06.378Z,96.68
2022-12-31T21:06:35.721Z,96.78
2022-12-31T21:09:06.255Z,96.66
2022-12-31T21:11:50.430Z,96.56
2022-12-31T21:14:18.214Z,96.30
2022-12-31T21:16:45.959Z,96.15
2022-12-31T21:19:13.878Z,95.98
2022-12-31T21:21:42.514Z,95.71
2022-12-31T21:24:10.607Z,95.45
2022-12-31T21:26:38.340Z,95.32
2022-12-31T21:29:06.027Z,95.35
2022-12-31T21:31:33.782Z,95.40
2022-12-31T21:34:01.590Z,95.17
2022-12-31T21:36:29.321Z,95.20
2022-12-31T21:38:57.059Z,95.16
2022-12-31T21:41:40.696Z,95.18
2022-12-31T21:44:08.432Z,94.89
2022-12-31T21:46:36.236Z,94.79
2022-12-31T21:49:04.221Z,94.67
2022-12-31T21:51:31.955Z,94.75
2022-12-31T21:53:59.648Z,94.63
2022-12-31T21:56:27.381Z,94.63
2022-12-31T21:59:13.400Z,94.79
2022-12-31T22:01:57.260Z,94.65
2022-12-31T22:05:00.379Z,94.67
2022-12-31T22:07:13.025Z,94.63
2022-12-31T22:09:40.729Z,94.39
2022-12-31T22:12:08.405Z,94.17
2022-12-31T22:14:36.114Z,94.03
2022-12-31T22:17:03.846Z,93.90
2022-12-31T22:19:33.644Z,93.56
2022-12-31T22:22:11.431Z,93.75
2022-12-31T22:24:39.145Z,93.66
2022-12-31T22:27:29.480Z,93.70
2022-12-31T22:29:54.577Z,93.65
2022-12-31T22:32:22.271Z,93.26
2022-12-31T22:34:49.950Z,93.07
2022-12-31T22:37:54.416Z,93.36
2022-12-31T22:40:05.990Z,93.30
2022-12-31T22:42:33.692Z,93.03
2022-12-31T22:45:01.401Z,93.30
2022-12-31T22:47:29.130Z,93.08
2022-12-31T22:49:56.963Z,93.18
2022-12-31T22:52:24.861Z,93.15
2022-12-31T22:54:52.610Z,92.96
2022-12-31T22:57:20.547Z,93.05
2022-12-31T22:59:48.415Z,92.98
2022-12-31T23:02:16.436Z,92.98
2022-12-31T23:04:44.188Z,92.92
2022-12-31T23:07:11.920Z,92.78
2022-12-31T23:09:55.674Z,92.84
2022-12-31T23:12:23.404Z,92.66
2022-12-31T23:15:07.075Z,92.83
2022-12-31T23:17:51.940Z,92.88
2022-12-31T23:20:38.246Z,92.91
2022-12-31T23:23:12.375Z,93.02
2022-12-31T23:25:41.777Z,93.08
2022-12-31T23:28:14.451Z,93.01
2022-12-31T23:30:43.661Z,93.08
2022-12-31T23:33:17.883Z,93.08
2022-12-31T23:35:46.017Z,92.96
2022-12-31T23:38:16.587Z,92.86
2022-12-31T23:40:45.043Z,92.95
2022-12-31T23:43:20.456Z,92.92
2022-12-31T23:45:50.285Z,92.98
2022-12-31T23:48:18.217Z,93.02
2022-12-31T23:50:52.919Z,92.99
2022-12-31T23:53:23.461Z,93.04
2022-12-31T23:55:52.583Z,93.02
2022-12-31T23:58:20.997Z,93.15
